Terminal Aerodrome Forecast
Issued by NWS

Home | Current Version | Previous Version | Text Only | Print | Product List | Glossary On
Versions: 1 2 3 4 5 6 7 8 9 10 11 12 13
000
FTUS43 KICT 252133 AAA
TAFSLN
TAF AMD
KSLN 252133Z 2522/2618 34020G27KT P6SM SCT040
     FM252300 34017G25KT P6SM SKC
     FM260200 VRB06KT P6SM SKC
     FM260700 23006KT P6SM SKC
     FM261300 25010KT P6SM SKC=

USA.gov is the U.S. government's official web portal to all federal, state and local government web resources and services.